Webcam Richtung Westen

Webcam27

Webcam Richtung Norden

Webcam36

Webcam Richtung Osten

Webcam09

Wetter(Würzburg):
241900Z AUTO 29002G03KT 48KM OVC040 16/12 Q1018
		
Fri 24.09.2021, 19:00 UTC

Sichtweite bis zu 48 km
Wind aus 290° mit 02kt, in Böen bis zu 03kt
bedeckter Himmel (8 Achtel) bei 4000 Fuß
Temperatur: 16 °C
Taupunkt: 12 °C
QNH: 1018 hPa
                         Heute        Morgen
                         24.09        25.09
--------------------------------------------
Beginn der Dämmerung     04:37        04:39
Sonnenaufgang            05:09        05:11
Sonnenuntergang          17:15        17:13
Ende der Dämmerung       17:47        17:45

Alle Zeiten in UTC